createdAt,value
2023-04-23T00:01:43.592Z,57.78
2023-04-23T00:04:50.866Z,58.00
2023-04-23T00:07:54.127Z,58.24
2023-04-23T00:10:55.995Z,58.10
2023-04-23T00:13:57.920Z,58.31
2023-04-23T00:16:59.528Z,58.11
2023-04-23T00:20:01.121Z,58.22
2023-04-23T00:23:03.302Z,58.09
2023-04-23T00:26:04.952Z,57.95
2023-04-23T00:29:06.571Z,58.30
2023-04-23T00:32:08.467Z,58.80
2023-04-23T00:35:10.511Z,58.77
2023-04-23T00:38:12.249Z,59.18
2023-04-23T00:41:13.910Z,59.26
2023-04-23T00:44:15.618Z,58.96
2023-04-23T00:47:17.150Z,59.24
2023-04-23T00:50:18.763Z,59.11
2023-04-23T00:53:20.299Z,59.63
2023-04-23T00:56:22.892Z,59.49
2023-04-23T00:59:28.905Z,59.77
2023-04-23T01:02:31.236Z,59.90
2023-04-23T01:05:33.053Z,60.66
2023-04-23T01:08:34.579Z,61.09
2023-04-23T01:11:39.546Z,61.18
2023-04-23T01:14:41.806Z,61.64
2023-04-23T01:17:43.626Z,61.74
2023-04-23T01:20:45.295Z,61.65
2023-04-23T01:23:47.039Z,61.85
2023-04-23T01:26:48.553Z,61.71
2023-04-23T01:29:50.297Z,61.72
2023-04-23T01:32:52.113Z,61.65
2023-04-23T01:35:54.544Z,61.68
2023-04-23T01:38:56.210Z,61.53
2023-04-23T01:41:57.841Z,61.70
2023-04-23T01:44:59.597Z,62.47
2023-04-23T01:48:01.169Z,61.97
2023-04-23T01:51:02.983Z,62.03
2023-04-23T01:54:04.518Z,61.75
2023-04-23T01:57:06.187Z,61.81
2023-04-23T02:00:10.563Z,62.15
2023-04-23T02:03:12.368Z,62.40
2023-04-23T02:06:14.349Z,62.07
2023-04-23T02:09:15.816Z,62.37
2023-04-23T02:12:17.609Z,62.33
2023-04-23T02:15:19.321Z,62.50
2023-04-23T02:18:20.951Z,62.67
2023-04-23T02:21:24.777Z,62.57
2023-04-23T02:24:26.399Z,63.02
2023-04-23T02:27:28.288Z,62.86
2023-04-23T02:30:30.080Z,62.92
2023-04-23T02:33:31.721Z,62.73
2023-04-23T02:36:33.452Z,62.92
2023-04-23T02:39:34.925Z,62.82
2023-04-23T02:42:36.600Z,62.88
2023-04-23T02:45:38.262Z,63.15
2023-04-23T02:48:40.795Z,63.38
2023-04-23T02:51:42.674Z,63.41
2023-04-23T02:54:44.359Z,63.47
2023-04-23T02:57:46.539Z,63.38
2023-04-23T03:00:48.196Z,63.34
2023-04-23T03:03:50.092Z,63.39
2023-04-23T03:06:52.029Z,63.38
2023-04-23T03:09:53.876Z,63.47
2023-04-23T03:12:55.958Z,63.26
2023-04-23T03:15:57.625Z,63.43
2023-04-23T03:18:59.416Z,63.15
2023-04-23T03:22:01.025Z,63.22
2023-04-23T03:25:02.946Z,63.77
2023-04-23T03:28:04.852Z,63.88
2023-04-23T03:31:06.640Z,64.17
2023-04-23T03:34:08.352Z,63.90
2023-04-23T03:37:09.984Z,63.73
2023-04-23T03:40:11.851Z,63.81
2023-04-23T03:43:13.531Z,64.20
2023-04-23T03:46:15.293Z,63.96
2023-04-23T03:49:17.471Z,64.35
2023-04-23T03:52:19.452Z,64.21
2023-04-23T03:55:21.369Z,64.60
2023-04-23T03:58:23.057Z,64.87
2023-04-23T04:01:24.617Z,65.04
2023-04-23T04:04:26.807Z,65.12
2023-04-23T04:07:29.237Z,65.00
2023-04-23T04:10:31.098Z,65.35
2023-04-23T04:13:32.783Z,65.25
2023-04-23T04:16:34.438Z,65.23
2023-04-23T04:19:36.236Z,65.72
2023-04-23T04:22:38.144Z,65.58
2023-04-23T04:25:39.766Z,66.09
2023-04-23T04:28:41.414Z,66.11
2023-04-23T04:31:43.580Z,65.76
2023-04-23T04:34:45.500Z,66.03
2023-04-23T04:37:47.058Z,66.32
2023-04-23T04:40:48.817Z,66.25
2023-04-23T04:43:50.319Z,66.09
2023-04-23T04:46:52.151Z,65.90
2023-04-23T04:49:56.888Z,66.24
2023-04-23T04:52:58.769Z,66.63
2023-04-23T04:56:00.357Z,66.62
2023-04-23T04:59:02.478Z,66.49
2023-04-23T05:02:04.202Z,66.21
2023-04-23T05:05:06.467Z,66.04
2023-04-23T05:08:08.236Z,65.98
2023-04-23T05:11:09.881Z,66.29
2023-04-23T05:14:11.546Z,66.73
2023-04-23T05:17:13.053Z,66.55
2023-04-23T05:20:14.939Z,66.44
2023-04-23T05:23:16.613Z,66.00
2023-04-23T05:26:18.385Z,65.53
2023-04-23T05:29:20.089Z,64.83
2023-04-23T05:32:21.865Z,64.21
2023-04-23T05:35:23.556Z,63.78
2023-04-23T05:38:25.262Z,63.82
2023-04-23T05:41:27.590Z,63.31
2023-04-23T05:44:30.039Z,62.59
2023-04-23T05:47:31.720Z,62.86
2023-04-23T05:50:34.074Z,62.32
2023-04-23T05:53:35.813Z,62.40
2023-04-23T05:56:37.497Z,62.35
2023-04-23T05:59:39.897Z,62.21
2023-04-23T06:02:42.248Z,61.96
2023-04-23T06:05:44.329Z,62.07
2023-04-23T06:08:46.197Z,62.05
2023-04-23T06:11:47.999Z,61.84
2023-04-23T06:14:49.741Z,61.32
2023-04-23T06:17:51.365Z,60.69
2023-04-23T06:20:53.576Z,60.73
2023-04-23T06:23:55.215Z,60.04
2023-04-23T06:26:56.898Z,60.13
2023-04-23T06:29:58.824Z,60.06
2023-04-23T06:33:01.949Z,59.77
2023-04-23T06:36:04.829Z,59.32
2023-04-23T06:39:06.507Z,58.73
2023-04-23T06:42:08.178Z,58.39
2023-04-23T06:45:10.299Z,58.09
2023-04-23T06:48:12.007Z,57.64
2023-04-23T06:51:14.792Z,57.45
2023-04-23T06:54:16.492Z,57.04
2023-04-23T06:57:18.465Z,56.62
2023-04-23T07:00:20.328Z,55.89
2023-04-23T07:03:22.125Z,55.40
2023-04-23T07:06:23.917Z,55.49
2023-04-23T07:09:26.652Z,55.11
2023-04-23T07:12:28.248Z,54.77
2023-04-23T07:15:29.903Z,54.13
2023-04-23T07:18:32.434Z,53.83
2023-04-23T07:21:34.204Z,53.38
2023-04-23T07:24:36.049Z,53.11
2023-04-23T07:27:37.999Z,52.85
2023-04-23T07:30:39.843Z,52.43
2023-04-23T07:33:41.643Z,51.82
2023-04-23T07:36:43.315Z,50.60
2023-04-23T07:39:45.060Z,49.79
2023-04-23T07:42:47.123Z,50.03
2023-04-23T07:45:48.760Z,49.67
2023-04-23T07:48:50.502Z,48.38
2023-04-23T07:51:52.093Z,47.37
2023-04-23T07:54:53.882Z,46.95
2023-04-23T07:57:55.504Z,46.83
2023-04-23T08:00:57.320Z,45.39
2023-04-23T08:03:59.785Z,45.43
2023-04-23T08:07:01.590Z,45.82
2023-04-23T08:10:03.331Z,44.97
2023-04-23T08:13:04.994Z,45.42
2023-04-23T08:16:06.825Z,45.89
2023-04-23T08:19:08.470Z,45.87
2023-04-23T08:22:10.194Z,45.30
2023-04-23T08:25:11.947Z,44.99
2023-04-23T08:28:13.556Z,44.63
2023-04-23T08:31:25.664Z,44.01
2023-04-23T08:34:28.445Z,43.02
2023-04-23T08:37:31.555Z,42.15
2023-04-23T08:40:36.907Z,42.30
2023-04-23T08:43:44.521Z,41.68
2023-04-23T08:46:46.249Z,41.55
2023-04-23T08:49:48.823Z,40.39
2023-04-23T08:52:53.307Z,39.89
2023-04-23T08:55:56.466Z,39.22
2023-04-23T08:58:58.711Z,39.20
2023-04-23T09:02:00.551Z,39.46
2023-04-23T09:05:05.935Z,38.69
2023-04-23T09:08:07.555Z,38.47
2023-04-23T09:11:09.203Z,38.43
2023-04-23T09:14:12.803Z,37.53
2023-04-23T09:17:14.453Z,37.39
2023-04-23T09:20:16.200Z,37.77
2023-04-23T09:23:21.982Z,37.52
2023-04-23T09:26:23.630Z,37.14
2023-04-23T09:29:25.504Z,35.57
2023-04-23T09:32:34.485Z,32.46
2023-04-23T09:35:39.090Z,34.44
2023-04-23T09:38:42.478Z,35.14
2023-04-23T09:41:45.169Z,35.44
2023-04-23T09:44:56.931Z,34.16
2023-04-23T09:47:59.194Z,32.00
2023-04-23T09:51:02.228Z,31.89
2023-04-23T09:54:04.021Z,32.26
2023-04-23T09:57:06.185Z,31.97
2023-04-23T10:00:19.917Z,29.72
2023-04-23T10:03:27.635Z,28.03
2023-04-23T10:06:42.537Z,26.90
2023-04-23T10:09:51.680Z,29.47
2023-04-23T10:12:55.494Z,28.68
2023-04-23T10:16:07.155Z,29.14
2023-04-23T10:19:18.697Z,30.51
2023-04-23T10:22:22.150Z,27.21
2023-04-23T10:25:24.707Z,23.23
2023-04-23T10:28:30.452Z,23.93
2023-04-23T10:31:32.994Z,26.86
2023-04-23T10:34:34.720Z,27.35
2023-04-23T10:37:37.214Z,27.39
2023-04-23T10:40:40.467Z,27.95
2023-04-23T10:43:42.236Z,28.11
2023-04-23T10:46:55.733Z,28.44
2023-04-23T10:49:57.656Z,28.08
2023-04-23T10:52:59.326Z,25.94
2023-04-23T10:56:07.884Z,26.29
2023-04-23T10:59:19.399Z,25.75
2023-04-23T11:02:23.849Z,25.30
2023-04-23T11:05:26.764Z,24.97
2023-04-23T11:08:30.753Z,24.74
2023-04-23T11:11:40.573Z,23.52
2023-04-23T11:14:48.709Z,25.06
2023-04-23T11:17:53.430Z,26.64
2023-04-23T11:20:56.866Z,25.80
2023-04-23T11:24:02.329Z,26.27
2023-04-23T11:27:10.919Z,25.16
2023-04-23T11:30:23.050Z,22.32
2023-04-23T11:33:24.713Z,21.90
2023-04-23T11:36:27.299Z,23.66
2023-04-23T11:39:28.934Z,25.80
2023-04-23T11:42:30.527Z,24.96
2023-04-23T11:45:32.315Z,24.75
2023-04-23T11:48:35.244Z,25.11
2023-04-23T11:51:41.635Z,25.56
2023-04-23T11:54:43.271Z,26.54
2023-04-23T11:57:49.566Z,25.45
2023-04-23T12:00:57.965Z,25.87
2023-04-23T12:03:59.828Z,25.52
2023-04-23T12:07:04.317Z,25.36
2023-04-23T12:10:10.044Z,25.61
2023-04-23T12:13:21.023Z,26.47
2023-04-23T12:16:43.696Z,26.14
2023-04-23T12:19:45.578Z,26.08
2023-04-23T12:22:47.805Z,26.80
2023-04-23T12:25:49.643Z,26.35
2023-04-23T12:28:55.999Z,26.98
2023-04-23T12:32:00.723Z,26.77
2023-04-23T12:35:02.517Z,26.95
2023-04-23T12:38:07.443Z,27.50
2023-04-23T12:41:09.174Z,27.09
2023-04-23T12:44:11.235Z,27.36
2023-04-23T12:47:13.035Z,26.98
2023-04-23T12:50:14.698Z,27.22
2023-04-23T12:53:16.326Z,26.27
2023-04-23T12:56:18.016Z,26.06
2023-04-23T12:59:19.748Z,26.42
2023-04-23T13:02:21.801Z,26.68
2023-04-23T13:05:23.975Z,26.85
2023-04-23T13:08:25.589Z,26.57
2023-04-23T13:11:27.266Z,25.12
2023-04-23T13:14:29.064Z,22.55
2023-04-23T13:17:30.940Z,24.23
2023-04-23T13:20:32.684Z,25.35
2023-04-23T13:23:34.321Z,24.27
2023-04-23T13:26:35.965Z,24.38
2023-04-23T13:29:37.689Z,22.93
2023-04-23T13:32:39.449Z,23.57
2023-04-23T13:35:41.123Z,22.77
2023-04-23T13:38:43.003Z,22.56
2023-04-23T13:41:44.597Z,22.57
2023-04-23T13:44:46.182Z,23.13
2023-04-23T13:47:47.896Z,23.83
2023-04-23T13:50:49.602Z,24.87
2023-04-23T13:53:51.242Z,24.55
2023-04-23T13:56:53.269Z,22.62
2023-04-23T13:59:55.632Z,24.08
2023-04-23T14:02:57.364Z,24.56
2023-04-23T14:05:59.148Z,24.70
2023-04-23T14:09:00.889Z,24.70
2023-04-23T14:12:04.503Z,24.90
2023-04-23T14:15:10.704Z,24.86
2023-04-23T14:18:12.361Z,25.13
2023-04-23T14:21:16.317Z,24.97
2023-04-23T14:24:22.977Z,23.97
2023-04-23T14:27:24.628Z,23.33
2023-04-23T14:30:26.379Z,23.27
2023-04-23T14:33:28.113Z,22.53
2023-04-23T14:36:30.451Z,23.23
2023-04-23T14:39:34.151Z,23.33
2023-04-23T14:42:35.890Z,23.85
2023-04-23T14:45:37.489Z,23.25
2023-04-23T14:48:39.234Z,23.83
2023-04-23T14:51:40.887Z,24.01
2023-04-23T14:54:42.535Z,23.77
2023-04-23T14:57:44.219Z,23.36
2023-04-23T15:00:45.944Z,23.62
2023-04-23T15:03:47.784Z,23.70
2023-04-23T15:06:49.523Z,22.47
2023-04-23T15:09:51.380Z,22.05
2023-04-23T15:13:03.127Z,22.97
2023-04-23T15:16:09.558Z,22.88
2023-04-23T15:19:11.327Z,24.19
2023-04-23T15:22:13.039Z,24.34
2023-04-23T15:25:14.800Z,25.36
2023-04-23T15:28:16.563Z,25.88
2023-04-23T15:31:18.649Z,26.71
2023-04-23T15:34:20.404Z,27.31
2023-04-23T15:37:22.036Z,27.68
2023-04-23T15:40:23.657Z,27.92
2023-04-23T15:43:25.357Z,28.09
2023-04-23T15:46:27.453Z,28.06
2023-04-23T15:49:29.094Z,28.12
2023-04-23T15:52:31.539Z,28.30
2023-04-23T15:55:33.270Z,28.68
2023-04-23T15:58:34.930Z,28.83
2023-04-23T16:01:36.678Z,28.97
2023-04-23T16:07:40.448Z,28.78
2023-04-23T16:10:42.018Z,29.42
2023-04-23T16:13:43.725Z,29.84
2023-04-23T16:16:45.470Z,30.45
2023-04-23T16:19:47.310Z,31.03
2023-04-23T16:22:49.311Z,31.39
2023-04-23T16:25:51.025Z,31.52
2023-04-23T16:29:05.718Z,31.64
2023-04-23T16:32:14.380Z,31.57
2023-04-23T16:35:16.146Z,31.72
2023-04-23T16:38:17.772Z,31.95
2023-04-23T16:41:20.318Z,32.33
2023-04-23T16:44:21.942Z,32.61
2023-04-23T16:47:23.671Z,32.82
2023-04-23T16:50:25.376Z,32.93
2023-04-23T16:53:27.032Z,32.93
2023-04-23T16:56:29.500Z,32.89
2023-04-23T16:59:31.576Z,32.96
2023-04-23T17:02:33.317Z,32.91
2023-04-23T17:05:35.036Z,33.10
2023-04-23T17:08:37.827Z,33.71
2023-04-23T17:11:39.449Z,33.69
2023-04-23T17:14:41.304Z,33.77
2023-04-23T17:17:43.517Z,34.16
2023-04-23T17:20:45.194Z,34.55
2023-04-23T17:23:47.422Z,34.65
2023-04-23T17:26:49.162Z,34.80
2023-04-23T17:29:50.755Z,34.91
2023-04-23T17:32:52.476Z,35.05
2023-04-23T17:35:54.242Z,35.36
2023-04-23T17:38:55.830Z,35.45
2023-04-23T17:41:57.531Z,35.44
2023-04-23T17:44:59.251Z,35.54
2023-04-23T17:48:00.996Z,35.57
2023-04-23T17:51:02.816Z,35.62
2023-04-23T17:54:05.179Z,35.43
2023-04-23T17:57:06.929Z,35.45
2023-04-23T18:00:09.316Z,35.58
2023-04-23T18:03:11.308Z,35.94
2023-04-23T18:06:13.180Z,36.04
2023-04-23T18:09:14.861Z,36.55
2023-04-23T18:12:16.797Z,36.75
2023-04-23T18:15:18.557Z,36.98
2023-04-23T18:18:20.253Z,37.05
2023-04-23T18:21:22.365Z,36.98
2023-04-23T18:24:24.691Z,37.58
2023-04-23T18:27:26.307Z,38.33
2023-04-23T18:30:28.526Z,38.94
2023-04-23T18:33:42.591Z,39.22
2023-04-23T18:36:44.265Z,39.46
2023-04-23T18:39:46.030Z,39.98
2023-04-23T18:42:47.656Z,42.69
2023-04-23T18:45:49.330Z,41.40
2023-04-23T18:48:52.780Z,41.54
2023-04-23T18:51:56.045Z,41.54
2023-04-23T18:54:57.757Z,41.71
2023-04-23T18:57:59.885Z,41.74
2023-04-23T19:01:01.839Z,41.86
2023-04-23T19:04:03.658Z,41.73
2023-04-23T19:07:05.615Z,42.22
2023-04-23T19:10:08.110Z,42.61
2023-04-23T19:13:09.688Z,42.69
2023-04-23T19:16:11.432Z,42.83
2023-04-23T19:19:13.184Z,42.96
2023-04-23T19:22:14.786Z,43.34
2023-04-23T19:25:16.606Z,43.96
2023-04-23T19:28:19.384Z,44.05
2023-04-23T19:31:21.209Z,44.37
2023-04-23T19:34:22.920Z,44.54
2023-04-23T19:37:24.672Z,44.69
2023-04-23T19:40:26.346Z,45.02
2023-04-23T19:43:27.993Z,45.41
2023-04-23T19:46:29.767Z,46.02
2023-04-23T19:49:31.540Z,46.42
2023-04-23T19:52:33.492Z,46.35
2023-04-23T19:55:35.149Z,46.75
2023-04-23T19:58:37.220Z,47.33
2023-04-23T20:01:38.950Z,47.52
2023-04-23T20:04:41.170Z,47.41
2023-04-23T20:07:43.058Z,48.43
2023-04-23T20:10:45.021Z,48.48
2023-04-23T20:13:46.699Z,48.81
2023-04-23T20:16:48.386Z,49.06
2023-04-23T20:19:50.201Z,49.55
2023-04-23T20:22:51.993Z,49.33
2023-04-23T20:25:53.776Z,49.73
2023-04-23T20:28:55.933Z,49.74
2023-04-23T20:31:57.585Z,49.92
2023-04-23T20:34:59.356Z,49.82
2023-04-23T20:38:01.111Z,49.85
2023-04-23T20:41:02.908Z,50.10
2023-04-23T20:44:04.948Z,49.87
2023-04-23T20:47:06.573Z,49.97
2023-04-23T20:50:08.643Z,50.04
2023-04-23T20:53:10.316Z,50.10
2023-04-23T20:56:11.986Z,50.20
2023-04-23T20:59:13.623Z,50.16
2023-04-23T21:02:15.309Z,50.18
2023-04-23T21:05:17.219Z,50.37
2023-04-23T21:08:18.858Z,50.70
2023-04-23T21:11:20.521Z,50.75
2023-04-23T21:14:22.254Z,50.97
2023-04-23T21:17:23.987Z,51.02
2023-04-23T21:20:25.598Z,51.03
2023-04-23T21:23:27.334Z,51.28
2023-04-23T21:26:30.383Z,51.39
2023-04-23T21:29:32.391Z,51.44
2023-04-23T21:32:34.107Z,51.33
2023-04-23T21:35:35.875Z,51.86
2023-04-23T21:38:37.707Z,51.99
2023-04-23T21:41:39.412Z,52.08
2023-04-23T21:44:41.096Z,52.13
2023-04-23T21:47:42.863Z,52.32
2023-04-23T21:50:44.602Z,52.30
2023-04-23T21:53:46.341Z,52.50
2023-04-23T21:56:48.046Z,52.44
2023-04-23T21:59:50.247Z,52.33
2023-04-23T22:02:52.215Z,52.39
2023-04-23T22:05:54.836Z,52.71
2023-04-23T22:08:56.636Z,52.71
2023-04-23T22:12:02.472Z,52.91
2023-04-23T22:15:06.544Z,53.37
2023-04-23T22:18:08.237Z,53.14
2023-04-23T22:21:09.990Z,53.47
2023-04-23T22:24:11.535Z,54.25
2023-04-23T22:27:13.058Z,54.37
2023-04-23T22:30:14.978Z,54.67
2023-04-23T22:33:19.217Z,54.65
2023-04-23T22:36:20.880Z,54.76
2023-04-23T22:39:22.593Z,54.97
2023-04-23T22:42:24.159Z,55.35
2023-04-23T22:45:25.671Z,55.29
2023-04-23T22:48:27.261Z,55.49
2023-04-23T22:51:28.928Z,55.54
2023-04-23T22:54:30.560Z,55.46
2023-04-23T22:57:32.250Z,55.49
2023-04-23T23:00:33.953Z,55.39
2023-04-23T23:03:35.641Z,55.31
2023-04-23T23:06:37.390Z,55.32
2023-04-23T23:09:39.014Z,55.37
2023-04-23T23:12:40.613Z,55.31
2023-04-23T23:15:42.239Z,55.19
2023-04-23T23:18:43.979Z,55.20
2023-04-23T23:21:45.747Z,55.07
2023-04-23T23:24:47.431Z,55.41
2023-04-23T23:27:49.071Z,55.69
2023-04-23T23:30:50.843Z,55.90
2023-04-23T23:33:53.268Z,56.47
2023-04-23T23:36:54.884Z,56.48
2023-04-23T23:39:56.524Z,56.62
2023-04-23T23:42:58.175Z,56.67
2023-04-23T23:45:59.872Z,56.73
2023-04-23T23:49:01.516Z,56.81
2023-04-23T23:52:03.218Z,56.91
2023-04-23T23:55:05.380Z,56.86
2023-04-23T23:58:07.066Z,56.55
